Gilbert, Arkansas
Current Conditions -  °F | °C
As of 4:55 PM on Tuesday 27 Jan 2015 (Local Time) from KFLP Reporting Station
Clear Clear  
Wind Chill: 61°   Ceiling: Unl
Heat Index: 61°   Visibility: 9mi
Dew Point: 30°   Wind: 0mph
Humidity: 31%   Direction: NA
Pressure: 30.11"   Gusts: NA
Location:  35.99°N, 92.72°W
Report Text: KFLP 272255Z 00000KT 9SM CLR 16/M01 A3011 RMK AO1
Loading
Personal Weather Stations






























Interactive Weather Map New forecast layout! Learn more

10-Day Weather Forecast

Advertisements
Track Severe Weather on mobile